createdAt,value
2018-11-10T00:00:25.285Z,19.00
2018-11-10T00:03:11.308Z,18.30
2018-11-10T00:05:41.380Z,20.70
2018-11-10T00:08:10.999Z,20.00
2018-11-10T00:10:39.612Z,19.90
2018-11-10T00:13:09.335Z,22.75
2018-11-10T00:15:37.887Z,21.50
2018-11-10T00:18:06.687Z,18.53
2018-11-10T00:20:35.128Z,20.53
2018-11-10T00:23:04.478Z,20.10
2018-11-10T00:25:33.044Z,21.23
2018-11-10T00:28:04.026Z,19.00
2018-11-10T00:30:32.552Z,18.17
2018-11-10T00:33:01.385Z,17.93
2018-11-10T00:35:30.012Z,19.60
2018-11-10T00:38:02.519Z,20.43
2018-11-10T00:40:30.981Z,21.25
2018-11-10T00:43:01.126Z,19.03
2018-11-10T00:45:31.725Z,20.07
2018-11-10T00:48:00.315Z,19.43
2018-11-10T00:50:28.965Z,19.33
2018-11-10T00:52:57.588Z,18.30
2018-11-10T00:55:26.376Z,19.20
2018-11-10T00:57:55.036Z,20.10
2018-11-10T01:00:25.380Z,19.83
2018-11-10T01:02:56.988Z,18.80
2018-11-10T01:05:29.176Z,18.57
2018-11-10T01:08:00.765Z,19.20
2018-11-10T01:10:29.348Z,18.17
2018-11-10T01:12:57.963Z,18.03
2018-11-10T01:15:26.687Z,18.00
2018-11-10T01:18:02.402Z,16.23
2018-11-10T01:20:31.022Z,17.27
2018-11-10T01:23:08.020Z,15.70
2018-11-10T01:25:36.695Z,14.27
2018-11-10T01:28:05.343Z,15.50
2018-11-10T01:30:33.915Z,16.87
2018-11-10T01:33:05.183Z,14.90
2018-11-10T01:35:33.906Z,15.10
2018-11-10T01:38:02.476Z,15.27
2018-11-10T01:40:31.168Z,15.30
2018-11-10T01:43:02.400Z,15.00
2018-11-10T01:45:35.188Z,14.57
2018-11-10T01:48:03.901Z,14.77
2018-11-10T01:50:32.588Z,14.80
2018-11-10T01:53:01.241Z,15.57
2018-11-10T01:55:30.996Z,14.70
2018-11-10T01:57:59.606Z,13.97
2018-11-10T02:00:28.299Z,12.93
2018-11-10T02:02:56.968Z,14.73
2018-11-10T02:05:30.640Z,14.53
2018-11-10T02:07:59.165Z,12.50
2018-11-10T02:10:27.708Z,13.70
2018-11-10T02:13:00.053Z,14.03
2018-11-10T02:15:30.549Z,14.10
2018-11-10T02:18:00.644Z,12.97
2018-11-10T02:20:29.323Z,13.63
2018-11-10T02:22:59.354Z,13.23
2018-11-10T02:25:30.493Z,14.60
2018-11-10T02:28:00.449Z,12.07
2018-11-10T02:30:29.077Z,15.23
2018-11-10T02:33:01.180Z,14.47
2018-11-10T02:35:32.062Z,14.47
2018-11-10T02:38:00.659Z,15.63
2018-11-10T02:40:29.305Z,15.00
2018-11-10T02:43:02.393Z,14.70
2018-11-10T02:45:30.992Z,14.43
2018-11-10T02:48:01.724Z,15.03
2018-11-10T02:50:30.388Z,14.50
2018-11-10T02:53:00.304Z,13.83
2018-11-10T02:55:28.983Z,15.73
2018-11-10T02:57:57.528Z,15.53
2018-11-10T03:00:26.272Z,15.00
2018-11-10T03:02:57.906Z,14.83
2018-11-10T03:05:28.252Z,15.23
2018-11-10T03:07:56.933Z,15.30
2018-11-10T03:10:25.558Z,16.30
2018-11-10T03:13:02.059Z,14.87
2018-11-10T03:15:30.648Z,14.70
2018-11-10T03:17:59.145Z,15.67
2018-11-10T03:20:27.818Z,17.13
2018-11-10T03:23:03.165Z,15.77
2018-11-10T03:25:34.756Z,16.07
2018-11-10T03:28:03.393Z,16.27
2018-11-10T03:30:32.069Z,16.50
2018-11-10T03:33:00.670Z,16.90
2018-11-10T03:35:31.364Z,16.27
2018-11-10T03:37:59.985Z,18.50
2018-11-10T03:40:28.680Z,17.37
2018-11-10T03:42:58.388Z,16.10
2018-11-10T03:45:30.265Z,17.30
2018-11-10T03:48:01.604Z,18.83
2018-11-10T03:50:31.101Z,18.47
2018-11-10T03:53:00.354Z,19.63
2018-11-10T03:55:32.034Z,19.63
2018-11-10T03:58:04.545Z,19.77
2018-11-10T04:00:33.376Z,19.57
2018-11-10T04:03:02.202Z,17.70
2018-11-10T04:05:32.987Z,18.70
2018-11-10T04:08:01.733Z,19.60
2018-11-10T04:10:39.724Z,17.37
2018-11-10T04:15:46.278Z,19.93
2018-11-10T04:18:14.869Z,16.50
2018-11-10T04:20:43.553Z,18.43
2018-11-10T04:23:16.889Z,18.50
2018-11-10T04:25:45.716Z,17.83
2018-11-10T04:28:14.300Z,19.77
2018-11-10T04:30:42.802Z,18.40
2018-11-10T04:33:11.540Z,17.47
2018-11-10T04:35:40.201Z,17.80
2018-11-10T04:38:08.827Z,15.73
2018-11-10T04:40:37.508Z,15.60
2018-11-10T04:43:07.687Z,13.63
2018-11-10T04:45:36.317Z,14.90
2018-11-10T04:48:05.079Z,15.77
2018-11-10T04:50:33.696Z,13.70
2018-11-10T04:53:02.344Z,15.90
2018-11-10T04:55:30.988Z,14.50
2018-11-10T04:57:59.599Z,16.23
2018-11-10T05:00:29.296Z,16.57
2018-11-10T05:02:57.999Z,14.93
2018-11-10T05:05:26.908Z,16.27
2018-11-10T05:07:55.719Z,17.27
2018-11-10T05:10:24.456Z,16.30
2018-11-10T05:12:52.963Z,16.73
2018-11-10T05:15:21.567Z,15.03
2018-11-10T05:17:50.203Z,15.43
2018-11-10T05:20:18.932Z,16.07
2018-11-10T05:22:47.516Z,15.57
2018-11-10T05:25:16.230Z,15.00
2018-11-10T05:27:44.896Z,14.73
2018-11-10T05:30:20.486Z,15.00
2018-11-10T05:32:49.127Z,16.43
2018-11-10T05:35:17.847Z,14.20
2018-11-10T05:37:46.500Z,16.13
2018-11-10T05:40:15.112Z,16.73
2018-11-10T05:42:43.820Z,16.00
2018-11-10T05:45:12.261Z,15.67
2018-11-10T05:47:40.951Z,15.63
2018-11-10T05:50:10.216Z,16.33
2018-11-10T05:52:38.965Z,17.53
2018-11-10T05:55:09.483Z,17.17
2018-11-10T05:57:44.488Z,15.67
2018-11-10T06:00:13.866Z,16.37
2018-11-10T06:02:42.888Z,15.70
2018-11-10T06:05:11.957Z,17.10
2018-11-10T06:07:40.539Z,17.33
2018-11-10T06:10:10.370Z,18.87
2018-11-10T06:12:38.650Z,18.70
2018-11-10T06:15:11.084Z,22.53
2018-11-10T06:17:39.908Z,24.40
2018-11-10T06:20:10.592Z,24.90
2018-11-10T06:22:39.503Z,27.20
2018-11-10T06:25:10.201Z,26.27
2018-11-10T06:27:39.108Z,27.67
2018-11-10T06:30:09.093Z,28.47
2018-11-10T06:32:37.864Z,28.73
2018-11-10T06:35:20.178Z,26.80
2018-11-10T06:37:48.928Z,27.03
2018-11-10T06:40:17.609Z,26.43
2018-11-10T06:42:46.253Z,27.87
2018-11-10T06:45:20.577Z,28.27
2018-11-10T06:47:49.231Z,29.20
2018-11-10T06:50:24.344Z,28.23
2018-11-10T06:52:58.213Z,27.70
2018-11-10T06:55:36.899Z,28.53
2018-11-10T06:58:05.695Z,27.63
2018-11-10T07:00:35.660Z,28.07
2018-11-10T07:03:05.640Z,29.57
2018-11-10T07:05:35.251Z,29.20
2018-11-10T07:08:04.120Z,28.00
2018-11-10T07:10:32.900Z,28.27
2018-11-10T07:13:01.692Z,27.13
2018-11-10T07:15:30.202Z,27.83
2018-11-10T07:18:01.227Z,29.57
2018-11-10T07:20:29.671Z,26.10
2018-11-10T07:22:58.275Z,26.83
2018-11-10T07:25:26.953Z,26.60
2018-11-10T07:27:55.512Z,28.63
2018-11-10T07:30:24.118Z,29.33
2018-11-10T07:32:53.271Z,27.63
2018-11-10T07:35:21.858Z,27.20
2018-11-10T07:37:50.465Z,26.23
2018-11-10T07:40:19.105Z,28.43
2018-11-10T07:42:47.750Z,28.67
2018-11-10T07:45:19.045Z,25.23
2018-11-10T07:47:47.661Z,23.70
2018-11-10T07:50:16.319Z,26.50
2018-11-10T07:52:45.005Z,25.57
2018-11-10T07:55:29.465Z,26.37
2018-11-10T07:57:58.045Z,26.07
2018-11-10T08:00:26.661Z,25.83
2018-11-10T08:02:56.154Z,27.00
2018-11-10T08:05:25.482Z,25.50
2018-11-10T08:08:10.124Z,24.83
2018-11-10T08:10:56.819Z,24.67
2018-11-10T08:13:43.093Z,24.43
2018-11-10T08:19:30.037Z,24.77
2018-11-10T08:21:58.701Z,26.50
2018-11-10T08:24:27.091Z,26.13
2018-11-10T08:30:00.941Z,24.00
2018-11-10T08:32:33.197Z,24.87
2018-11-10T08:35:16.482Z,23.97
2018-11-10T08:38:41.875Z,24.57
2018-11-10T08:41:10.714Z,21.97
2018-11-10T08:43:39.371Z,22.77
2018-11-10T08:46:08.216Z,25.30
2018-11-10T08:48:36.992Z,25.30
2018-11-10T08:51:06.079Z,24.50
2018-11-10T08:53:36.187Z,22.63
2018-11-10T08:56:04.445Z,25.00
2018-11-10T08:58:32.745Z,23.17
2018-11-10T09:01:01.080Z,21.60
2018-11-10T09:03:30.852Z,24.37
2018-11-10T09:06:04.443Z,24.57
2018-11-10T09:08:33.517Z,23.53
2018-11-10T09:11:02.120Z,24.07
2018-11-10T09:13:30.972Z,22.63
2018-11-10T09:15:59.588Z,23.47
2018-11-10T09:18:28.209Z,23.50
2018-11-10T09:20:56.897Z,23.17
2018-11-10T09:23:25.305Z,22.63
2018-11-10T09:25:53.928Z,24.20
2018-11-10T09:28:23.819Z,21.70
2018-11-10T09:30:52.515Z,23.00
2018-11-10T09:33:20.660Z,21.93
2018-11-10T09:35:50.967Z,22.50
2018-11-10T09:38:21.489Z,22.00
2018-11-10T09:40:49.751Z,22.63
2018-11-10T09:46:37.672Z,23.30
2018-11-10T09:49:34.536Z,24.73
2018-11-10T09:54:51.023Z,23.87
2018-11-10T09:57:40.041Z,23.97
2018-11-10T10:00:18.348Z,25.47
2018-11-10T10:02:48.551Z,24.57
2018-11-10T10:05:20.637Z,23.57
2018-11-10T10:07:50.846Z,24.50
2018-11-10T10:10:20.725Z,23.23
2018-11-10T10:12:50.085Z,25.20
2018-11-10T10:15:19.297Z,26.10
2018-11-10T10:17:48.235Z,24.87
2018-11-10T10:20:17.938Z,24.53
2018-11-10T10:22:47.215Z,25.37
2018-11-10T10:25:17.589Z,25.13
2018-11-10T10:27:48.001Z,23.50
2018-11-10T10:30:17.863Z,23.67
2018-11-10T10:32:47.716Z,25.37
2018-11-10T10:35:16.507Z,23.53
2018-11-10T10:37:46.098Z,25.10
2018-11-10T10:40:17.452Z,24.37
2018-11-10T10:42:54.318Z,23.27
2018-11-10T10:45:23.787Z,22.27
2018-11-10T10:47:52.152Z,22.60
2018-11-10T10:50:21.575Z,24.13
2018-11-10T10:52:49.863Z,22.03
2018-11-10T10:55:18.941Z,24.13
2018-11-10T10:57:48.335Z,23.73
2018-11-10T11:00:23.176Z,23.07
2018-11-10T11:02:56.875Z,24.10
2018-11-10T11:05:30.455Z,22.67
2018-11-10T11:07:58.731Z,23.03
2018-11-10T11:10:27.016Z,24.60
2018-11-10T11:12:55.440Z,22.87
2018-11-10T11:15:24.031Z,21.90
2018-11-10T11:17:52.286Z,21.10
2018-11-10T11:20:20.678Z,22.33
2018-11-10T11:22:49.043Z,19.47
2018-11-10T11:25:17.417Z,21.93
2018-11-10T11:27:46.050Z,22.47
2018-11-10T11:30:14.605Z,23.00
2018-11-10T11:32:43.441Z,21.43
2018-11-10T11:35:12.982Z,19.90
2018-11-10T11:37:42.100Z,22.97
2018-11-10T11:40:12.137Z,20.33
2018-11-10T11:42:40.888Z,22.17
2018-11-10T11:45:10.445Z,20.57
2018-11-10T11:47:40.140Z,22.80
2018-11-10T11:50:10.153Z,20.93
2018-11-10T11:52:38.804Z,21.13
2018-11-10T11:55:07.601Z,21.93
2018-11-10T11:57:36.148Z,21.57
2018-11-10T12:00:05.373Z,19.43
2018-11-10T12:02:33.788Z,21.10
2018-11-10T12:05:02.244Z,22.10
2018-11-10T12:07:30.775Z,22.13
2018-11-10T12:09:59.089Z,21.07
2018-11-10T12:12:27.540Z,19.30
2018-11-10T12:14:56.166Z,19.40
2018-11-10T12:17:24.757Z,23.03
2018-11-10T12:20:00.499Z,18.67
2018-11-10T12:22:29.427Z,18.60
2018-11-10T12:25:01.570Z,16.20
2018-11-10T12:30:19.615Z,15.37
2018-11-10T12:35:41.761Z,15.20
2018-11-10T12:38:17.109Z,17.77
2018-11-10T12:40:45.647Z,15.63
2018-11-10T12:43:15.772Z,14.77
2018-11-10T12:45:44.220Z,14.70
2018-11-10T12:48:14.332Z,14.73
2018-11-10T12:50:42.824Z,16.53
2018-11-10T12:53:11.296Z,14.87
2018-11-10T12:55:41.039Z,13.20
2018-11-10T12:58:09.772Z,13.27
2018-11-10T13:00:39.224Z,14.50
2018-11-10T13:03:07.729Z,16.03
2018-11-10T13:05:36.493Z,15.30
2018-11-10T13:08:05.948Z,13.43
2018-11-10T13:10:34.545Z,13.23
2018-11-10T13:13:03.726Z,13.30
2018-11-10T13:15:32.137Z,16.00
2018-11-10T13:18:01.046Z,15.13
2018-11-10T13:20:29.928Z,16.53
2018-11-10T13:22:58.448Z,16.37
2018-11-10T13:25:27.047Z,14.33
2018-11-10T13:27:56.825Z,14.70
2018-11-10T13:30:25.508Z,15.40
2018-11-10T13:32:55.836Z,12.37
2018-11-10T13:35:24.625Z,12.57
2018-11-10T13:37:53.396Z,13.10
2018-11-10T13:40:24.029Z,14.13
2018-11-10T13:42:55.489Z,12.80
2018-11-10T13:45:23.992Z,10.10
2018-11-10T13:48:12.814Z,12.43
2018-11-10T13:50:42.020Z,10.40
2018-11-10T13:53:13.301Z,10.40
2018-11-10T13:55:41.792Z,9.70
2018-11-10T13:58:10.345Z,7.93
2018-11-10T14:00:39.802Z,6.73
2018-11-10T14:03:15.691Z,6.87
2018-11-10T14:06:13.058Z,7.07
2018-11-10T14:08:45.062Z,6.37
2018-11-10T14:11:19.899Z,5.93
2018-11-10T14:13:50.724Z,5.40
2018-11-10T14:16:21.687Z,5.80
2018-11-10T14:19:10.545Z,5.80
2018-11-10T14:21:44.504Z,5.33
2018-11-10T14:24:16.935Z,5.73
2018-11-10T14:26:45.825Z,6.10
2018-11-10T14:29:18.833Z,5.70
2018-11-10T14:31:47.772Z,6.60
2018-11-10T14:34:16.745Z,6.47
2018-11-10T14:36:45.611Z,6.67
2018-11-10T14:39:14.475Z,8.63
2018-11-10T14:41:43.261Z,8.43
2018-11-10T14:44:12.303Z,7.23
2018-11-10T14:46:41.091Z,6.93
2018-11-10T14:49:10.196Z,7.53
2018-11-10T14:51:39.208Z,7.07
2018-11-10T14:57:20.799Z,5.93
2018-11-10T14:59:52.513Z,5.97
2018-11-10T15:02:22.501Z,5.23
2018-11-10T15:04:54.353Z,4.63
2018-11-10T15:07:24.651Z,4.90
2018-11-10T15:09:59.515Z,5.73
2018-11-10T15:12:28.139Z,4.70
2018-11-10T15:14:57.672Z,4.80
2018-11-10T15:17:35.811Z,4.57
2018-11-10T15:20:04.543Z,4.90
2018-11-10T15:22:33.724Z,4.33
2018-11-10T15:25:02.167Z,4.57
2018-11-10T15:27:31.228Z,4.90
2018-11-10T15:30:00.067Z,4.77
2018-11-10T15:32:29.532Z,4.23
2018-11-10T15:35:18.412Z,3.90
2018-11-10T15:38:04.424Z,4.33
2018-11-10T15:40:35.366Z,4.13
2018-11-10T15:45:47.405Z,4.67
2018-11-10T15:48:29.208Z,4.10
2018-11-10T15:56:10.572Z,3.90
2018-11-10T16:01:33.552Z,3.90
2018-11-10T16:04:15.175Z,5.00
2018-11-10T16:06:51.776Z,3.50
2018-11-10T16:09:20.113Z,3.97
2018-11-10T16:11:48.296Z,3.33
2018-11-10T16:14:17.024Z,3.80
2018-11-10T16:16:50.135Z,3.40
2018-11-10T16:22:00.913Z,3.23
2018-11-10T16:24:29.705Z,4.00
2018-11-10T16:27:05.768Z,3.40
2018-11-10T16:29:34.745Z,3.23
2018-11-10T16:32:03.515Z,3.37
2018-11-10T16:34:36.372Z,3.10
2018-11-10T16:37:05.481Z,3.00
2018-11-10T16:39:34.345Z,3.63
2018-11-10T16:42:03.240Z,3.20
2018-11-10T16:44:32.193Z,3.30
2018-11-10T16:47:00.946Z,3.87
2018-11-10T16:49:29.571Z,3.23
2018-11-10T16:52:04.750Z,3.45
2018-11-10T16:54:34.486Z,4.33
2018-11-10T16:59:46.215Z,3.00
2018-11-10T17:02:14.916Z,4.00
2018-11-10T17:07:21.201Z,4.10
2018-11-10T17:09:50.013Z,3.30
2018-11-10T17:12:19.450Z,3.30
2018-11-10T17:14:51.543Z,2.97
2018-11-10T17:18:19.694Z,3.10
2018-11-10T17:20:54.106Z,3.47
2018-11-10T17:23:39.085Z,3.47
2018-11-10T17:26:18.506Z,3.87
2018-11-10T17:28:47.263Z,3.33
2018-11-10T17:31:15.879Z,2.67
2018-11-10T17:33:44.589Z,2.93
2018-11-10T17:36:13.302Z,2.13
2018-11-10T17:38:45.295Z,2.27
2018-11-10T17:41:13.904Z,3.13
2018-11-10T17:43:49.495Z,3.10
2018-11-10T17:46:17.771Z,2.80
2018-11-10T17:48:46.021Z,2.47
2018-11-10T17:51:32.456Z,2.33
2018-11-10T17:54:05.659Z,2.00
2018-11-10T17:56:45.704Z,2.23
2018-11-10T18:02:10.899Z,2.73
2018-11-10T18:04:42.671Z,3.27
2018-11-10T18:07:13.800Z,3.63
2018-11-10T18:09:46.713Z,5.47
2018-11-10T18:12:15.252Z,3.00
2018-11-10T18:14:48.830Z,2.63
2018-11-10T18:17:17.429Z,2.03
2018-11-10T18:19:48.017Z,2.60
2018-11-10T18:22:19.021Z,2.67
2018-11-10T18:24:49.928Z,2.72
2018-11-10T18:27:20.108Z,2.70
2018-11-10T18:32:55.591Z,2.57
2018-11-10T18:35:23.800Z,3.27
2018-11-10T18:38:04.561Z,3.05
2018-11-10T18:40:32.842Z,2.50
2018-11-10T18:43:11.290Z,2.57
2018-11-10T18:45:42.904Z,2.10
2018-11-10T18:48:11.097Z,3.83
2018-11-10T18:50:39.349Z,2.60
2018-11-10T18:53:07.627Z,2.70
2018-11-10T18:55:50.679Z,2.60
2018-11-10T18:58:19.824Z,2.20
2018-11-10T19:00:59.915Z,2.80
2018-11-10T19:03:28.171Z,2.13
2018-11-10T19:05:56.544Z,2.07
2018-11-10T19:08:35.478Z,2.50
2018-11-10T19:11:03.722Z,2.53
2018-11-10T19:13:41.249Z,2.40
2018-11-10T19:16:09.721Z,1.70
2018-11-10T19:18:37.980Z,1.90
2018-11-10T19:21:32.519Z,1.90
2018-11-10T19:24:35.663Z,1.73
2018-11-10T19:27:04.056Z,1.53
2018-11-10T19:29:32.327Z,1.80
2018-11-10T19:32:00.761Z,1.73
2018-11-10T19:34:42.751Z,1.73
2018-11-10T19:37:14.605Z,2.33
2018-11-10T19:40:02.974Z,2.00
2018-11-10T19:42:59.706Z,2.10
2018-11-10T19:48:43.843Z,2.10
2018-11-10T19:51:13.554Z,2.40
2018-11-10T19:53:42.387Z,2.03
2018-11-10T19:56:44.705Z,1.80
2018-11-10T19:59:27.163Z,2.03
2018-11-10T20:02:04.396Z,1.70
2018-11-10T20:04:32.787Z,1.57
2018-11-10T20:07:18.458Z,1.83
2018-11-10T20:09:48.926Z,1.77
2018-11-10T20:12:23.346Z,1.70
2018-11-10T20:14:51.751Z,1.70
2018-11-10T20:17:27.922Z,2.20
2018-11-10T20:20:29.237Z,2.17
2018-11-10T20:23:14.705Z,2.53
2018-11-10T20:25:55.498Z,1.87
2018-11-10T20:28:31.312Z,2.20
2018-11-10T20:30:59.723Z,2.10
2018-11-10T20:33:30.005Z,2.17
2018-11-10T20:36:02.402Z,2.17
2018-11-10T20:38:30.997Z,1.60
2018-11-10T20:40:59.396Z,1.97
2018-11-10T20:43:27.657Z,1.97
2018-11-10T20:46:01.428Z,1.90
2018-11-10T20:48:29.689Z,2.07
2018-11-10T20:51:01.388Z,1.77
2018-11-10T20:53:41.527Z,2.10
2018-11-10T20:56:10.039Z,1.93
2018-11-10T20:58:38.328Z,1.80
2018-11-10T21:01:06.632Z,1.80
2018-11-10T21:03:34.908Z,2.20
2018-11-10T21:06:03.453Z,2.00
2018-11-10T21:08:31.696Z,2.10
2018-11-10T21:11:29.108Z,1.67
2018-11-10T21:13:58.900Z,1.90
2018-11-10T21:16:27.934Z,2.13
2018-11-10T21:19:10.188Z,2.00
2018-11-10T21:21:44.770Z,1.97
2018-11-10T21:24:13.029Z,2.10
2018-11-10T21:27:12.717Z,1.80
2018-11-10T21:29:50.369Z,2.47
2018-11-10T21:32:23.023Z,2.37
2018-11-10T21:35:22.289Z,2.10
2018-11-10T21:42:19.757Z,2.53
2018-11-10T21:44:48.271Z,2.23
2018-11-10T21:47:24.311Z,2.70
2018-11-10T21:49:57.556Z,3.50
2018-11-10T21:52:25.776Z,3.30
2018-11-10T21:54:55.020Z,3.20
2018-11-10T21:57:23.263Z,3.17
2018-11-10T21:59:51.564Z,3.27
2018-11-10T22:02:40.391Z,4.08
2018-11-10T22:05:49.175Z,3.90
2018-11-10T22:11:30.243Z,2.40
2018-11-10T22:14:31.279Z,2.50
2018-11-10T22:25:56.264Z,2.33
2018-11-10T22:31:49.692Z,2.30
2018-11-10T22:37:48.768Z,2.77
2018-11-10T22:42:50.075Z,2.27
2018-11-10T22:45:19.678Z,2.13
2018-11-10T22:53:39.350Z,2.90
2018-11-10T22:56:08.213Z,2.37
2018-11-10T22:58:38.093Z,2.40
2018-11-10T23:01:08.747Z,2.00
2018-11-10T23:03:38.078Z,2.83
2018-11-10T23:06:07.044Z,2.83
2018-11-10T23:08:35.461Z,3.10
2018-11-10T23:11:03.813Z,3.70
2018-11-10T23:13:35.435Z,3.80
2018-11-10T23:16:03.739Z,4.87
2018-11-10T23:18:36.555Z,5.00
2018-11-10T23:21:05.916Z,4.93
2018-11-10T23:23:34.306Z,5.20
2018-11-10T23:26:02.491Z,5.27
2018-11-10T23:28:30.895Z,6.10
2018-11-10T23:30:59.171Z,5.30
2018-11-10T23:33:27.422Z,5.70
2018-11-10T23:35:56.743Z,5.67
2018-11-10T23:41:34.534Z,6.47
2018-11-10T23:44:02.968Z,6.83
2018-11-10T23:46:31.460Z,7.50
2018-11-10T23:49:00.145Z,8.07
2018-11-10T23:51:28.676Z,8.87
2018-11-10T23:53:57.102Z,8.77
2018-11-10T23:56:25.492Z,8.77
2018-11-10T23:58:54.016Z,8.77
